Warr Acres, Oklahoma
Current Conditions -  °F | °C
As of 7:53 AM on Monday 24 Nov 2014 (Local Time) from KPWA Reporting Station
Clear Clear  
Wind Chill: 27°   Ceiling: Unl
Heat Index: 35°   Visibility: 10mi
Dew Point: 25°   Wind: 10mph
Humidity: 67%   Direction: 260°W
Pressure: 29.95"   Gusts: NA
Location:  35.5369°N, 97.6228°W
Report Text: KPWA 241353Z 26009KT 10SM CLR 02/M04 A2995 RMK AO2 SLP146 T00171039
Loading
Personal Weather Stations






























Interactive Weather Map New forecast layout! Learn more

10-Day Weather Forecast

Advertisements
Track Severe Weather on mobile